sensor_id;sensor_type;location;lat;lon;timestamp;P1;durP1;ratioP1;P2;durP2;ratioP2
16199;SDS011;8207;52.494;4.654;2023-02-28T00:01:45;8.97;;;4.13;;
16199;SDS011;8207;52.494;4.654;2023-02-28T00:04:13;10.53;;;4.00;;
16199;SDS011;8207;52.494;4.654;2023-02-28T00:06:40;4.90;;;3.70;;
16199;SDS011;8207;52.494;4.654;2023-02-28T00:09:08;7.50;;;4.10;;
16199;SDS011;8207;52.494;4.654;2023-02-28T00:11:34;7.77;;;3.70;;
16199;SDS011;8207;52.494;4.654;2023-02-28T00:14:03;10.67;;;4.33;;
16199;SDS011;8207;52.494;4.654;2023-02-28T00:16:29;9.50;;;4.33;;
16199;SDS011;8207;52.494;4.654;2023-02-28T00:18:56;9.17;;;4.60;;
16199;SDS011;8207;52.494;4.654;2023-02-28T00:21:25;8.43;;;3.50;;
16199;SDS011;8207;52.494;4.654;2023-02-28T00:23:51;6.20;;;3.33;;
16199;SDS011;8207;52.494;4.654;2023-02-28T00:26:18;8.10;;;3.80;;
16199;SDS011;8207;52.494;4.654;2023-02-28T00:28:45;7.47;;;4.50;;
16199;SDS011;8207;52.494;4.654;2023-02-28T00:31:13;5.57;;;3.47;;
16199;SDS011;8207;52.494;4.654;2023-02-28T00:33:40;6.70;;;3.63;;
16199;SDS011;8207;52.494;4.654;2023-02-28T00:36:07;9.03;;;3.57;;
16199;SDS011;8207;52.494;4.654;2023-02-28T00:38:37;6.43;;;3.30;;
16199;SDS011;8207;52.494;4.654;2023-02-28T00:41:05;6.10;;;3.77;;
16199;SDS011;8207;52.494;4.654;2023-02-28T00:43:32;7.00;;;3.70;;
16199;SDS011;8207;52.494;4.654;2023-02-28T00:46:00;6.27;;;4.10;;
16199;SDS011;8207;52.494;4.654;2023-02-28T00:48:27;7.67;;;4.47;;
16199;SDS011;8207;52.494;4.654;2023-02-28T00:50:54;10.40;;;3.40;;
16199;SDS011;8207;52.494;4.654;2023-02-28T00:53:21;9.00;;;3.60;;
16199;SDS011;8207;52.494;4.654;2023-02-28T00:55:50;7.63;;;3.80;;
16199;SDS011;8207;52.494;4.654;2023-02-28T00:58:17;7.43;;;3.20;;
16199;SDS011;8207;52.494;4.654;2023-02-28T01:00:44;9.03;;;3.77;;
16199;SDS011;8207;52.494;4.654;2023-02-28T01:03:13;6.57;;;3.37;;
16199;SDS011;8207;52.494;4.654;2023-02-28T01:05:41;6.97;;;3.27;;
16199;SDS011;8207;52.494;4.654;2023-02-28T01:08:08;6.97;;;3.10;;
16199;SDS011;8207;52.494;4.654;2023-02-28T01:10:35;5.23;;;3.30;;
16199;SDS011;8207;52.494;4.654;2023-02-28T01:13:04;7.03;;;3.70;;
16199;SDS011;8207;52.494;4.654;2023-02-28T01:15:32;6.53;;;3.93;;
16199;SDS011;8207;52.494;4.654;2023-02-28T01:17:59;7.40;;;3.27;;
16199;SDS011;8207;52.494;4.654;2023-02-28T01:20:26;8.37;;;3.50;;
16199;SDS011;8207;52.494;4.654;2023-02-28T01:22:53;7.53;;;3.40;;
16199;SDS011;8207;52.494;4.654;2023-02-28T01:25:20;6.97;;;3.40;;
16199;SDS011;8207;52.494;4.654;2023-02-28T01:27:47;10.13;;;3.87;;
16199;SDS011;8207;52.494;4.654;2023-02-28T01:30:15;8.13;;;4.13;;
16199;SDS011;8207;52.494;4.654;2023-02-28T01:32:42;8.67;;;3.60;;
16199;SDS011;8207;52.494;4.654;2023-02-28T01:35:09;6.57;;;3.40;;
16199;SDS011;8207;52.494;4.654;2023-02-28T01:37:36;9.33;;;4.30;;
16199;SDS011;8207;52.494;4.654;2023-02-28T01:40:03;7.03;;;3.10;;
16199;SDS011;8207;52.494;4.654;2023-02-28T01:42:31;8.50;;;3.50;;
16199;SDS011;8207;52.494;4.654;2023-02-28T01:45:00;7.47;;;3.33;;
16199;SDS011;8207;52.494;4.654;2023-02-28T01:47:32;5.23;;;3.30;;
16199;SDS011;8207;52.494;4.654;2023-02-28T01:50:05;9.87;;;4.03;;
16199;SDS011;8207;52.494;4.654;2023-02-28T01:52:38;8.17;;;3.60;;
16199;SDS011;8207;52.494;4.654;2023-02-28T01:55:07;7.13;;;3.40;;
16199;SDS011;8207;52.494;4.654;2023-02-28T01:57:37;6.83;;;3.90;;
16199;SDS011;8207;52.494;4.654;2023-02-28T02:00:09;6.27;;;3.07;;
16199;SDS011;8207;52.494;4.654;2023-02-28T02:02:40;10.27;;;3.37;;
16199;SDS011;8207;52.494;4.654;2023-02-28T02:05:10;8.37;;;3.37;;
16199;SDS011;8207;52.494;4.654;2023-02-28T02:07:41;7.33;;;3.20;;
16199;SDS011;8207;52.494;4.654;2023-02-28T02:10:13;5.63;;;3.30;;
16199;SDS011;8207;52.494;4.654;2023-02-28T02:12:52;9.43;;;4.20;;
16199;SDS011;8207;52.494;4.654;2023-02-28T02:15:38;7.60;;;3.53;;
16199;SDS011;8207;52.494;4.654;2023-02-28T02:18:11;9.07;;;4.07;;
16199;SDS011;8207;52.494;4.654;2023-02-28T02:27:03;15.43;;;4.50;;
16199;SDS011;8207;52.494;4.654;2023-02-28T02:29:44;8.10;;;4.60;;
16199;SDS011;8207;52.494;4.654;2023-02-28T02:36:07;8.90;;;4.57;;
16199;SDS011;8207;52.494;4.654;2023-02-28T02:38:42;8.87;;;4.53;;
16199;SDS011;8207;52.494;4.654;2023-02-28T02:41:17;10.90;;;4.37;;
16199;SDS011;8207;52.494;4.654;2023-02-28T02:43:49;9.83;;;4.47;;
16199;SDS011;8207;52.494;4.654;2023-02-28T02:46:19;5.63;;;3.70;;
16199;SDS011;8207;52.494;4.654;2023-02-28T02:49:02;8.50;;;4.87;;
16199;SDS011;8207;52.494;4.654;2023-02-28T02:56:06;9.53;;;4.50;;
16199;SDS011;8207;52.494;4.654;2023-02-28T02:58:35;9.47;;;4.50;;
16199;SDS011;8207;52.494;4.654;2023-02-28T03:01:07;7.47;;;4.33;;
16199;SDS011;8207;52.494;4.654;2023-02-28T03:03:36;9.57;;;4.73;;
16199;SDS011;8207;52.494;4.654;2023-02-28T03:06:04;7.37;;;4.80;;
16199;SDS011;8207;52.494;4.654;2023-02-28T03:08:33;9.57;;;4.70;;
16199;SDS011;8207;52.494;4.654;2023-02-28T03:11:04;8.17;;;4.83;;
16199;SDS011;8207;52.494;4.654;2023-02-28T03:16:38;9.07;;;5.30;;
16199;SDS011;8207;52.494;4.654;2023-02-28T03:19:23;13.07;;;5.80;;
16199;SDS011;8207;52.494;4.654;2023-02-28T03:22:01;9.40;;;5.07;;
16199;SDS011;8207;52.494;4.654;2023-02-28T03:24:41;7.17;;;4.40;;
16199;SDS011;8207;52.494;4.654;2023-02-28T03:27:16;10.30;;;5.17;;
16199;SDS011;8207;52.494;4.654;2023-02-28T03:29:50;9.50;;;4.63;;
16199;SDS011;8207;52.494;4.654;2023-02-28T03:32:24;7.77;;;5.43;;
16199;SDS011;8207;52.494;4.654;2023-02-28T03:34:55;7.73;;;5.00;;
16199;SDS011;8207;52.494;4.654;2023-02-28T03:37:28;10.97;;;5.17;;
16199;SDS011;8207;52.494;4.654;2023-02-28T03:40:00;8.90;;;4.40;;
16199;SDS011;8207;52.494;4.654;2023-02-28T03:42:36;10.03;;;5.03;;
16199;SDS011;8207;52.494;4.654;2023-02-28T03:45:05;6.07;;;4.73;;
16199;SDS011;8207;52.494;4.654;2023-02-28T03:47:39;9.33;;;4.47;;
16199;SDS011;8207;52.494;4.654;2023-02-28T03:50:10;7.77;;;4.37;;
16199;SDS011;8207;52.494;4.654;2023-02-28T03:52:44;9.50;;;4.63;;
16199;SDS011;8207;52.494;4.654;2023-02-28T03:55:15;7.70;;;4.23;;
16199;SDS011;8207;52.494;4.654;2023-02-28T03:57:47;5.60;;;4.07;;
16199;SDS011;8207;52.494;4.654;2023-02-28T04:00:25;5.80;;;3.67;;
16199;SDS011;8207;52.494;4.654;2023-02-28T04:02:56;5.63;;;3.80;;
16199;SDS011;8207;52.494;4.654;2023-02-28T04:05:23;6.97;;;4.20;;
16199;SDS011;8207;52.494;4.654;2023-02-28T04:07:51;6.33;;;4.00;;
16199;SDS011;8207;52.494;4.654;2023-02-28T04:10:19;9.77;;;4.77;;
16199;SDS011;8207;52.494;4.654;2023-02-28T04:12:47;8.33;;;4.07;;
16199;SDS011;8207;52.494;4.654;2023-02-28T04:15:14;3.90;;;3.23;;
16199;SDS011;8207;52.494;4.654;2023-02-28T04:17:41;6.60;;;3.13;;
16199;SDS011;8207;52.494;4.654;2023-02-28T04:20:09;7.53;;;3.43;;
16199;SDS011;8207;52.494;4.654;2023-02-28T04:22:36;6.80;;;3.60;;
16199;SDS011;8207;52.494;4.654;2023-02-28T04:25:04;4.43;;;3.23;;
16199;SDS011;8207;52.494;4.654;2023-02-28T04:27:32;5.33;;;3.63;;
16199;SDS011;8207;52.494;4.654;2023-02-28T04:30:00;4.93;;;3.40;;
16199;SDS011;8207;52.494;4.654;2023-02-28T04:32:27;4.17;;;3.00;;
16199;SDS011;8207;52.494;4.654;2023-02-28T04:34:54;6.40;;;3.83;;
16199;SDS011;8207;52.494;4.654;2023-02-28T04:37:21;5.13;;;3.13;;
16199;SDS011;8207;52.494;4.654;2023-02-28T04:39:52;7.13;;;3.93;;
16199;SDS011;8207;52.494;4.654;2023-02-28T04:42:20;4.83;;;3.07;;
16199;SDS011;8207;52.494;4.654;2023-02-28T04:44:47;3.50;;;2.97;;
16199;SDS011;8207;52.494;4.654;2023-02-28T04:47:15;3.80;;;3.10;;
16199;SDS011;8207;52.494;4.654;2023-02-28T04:49:42;7.07;;;3.90;;
16199;SDS011;8207;52.494;4.654;2023-02-28T04:52:09;8.73;;;4.07;;
16199;SDS011;8207;52.494;4.654;2023-02-28T04:54:38;7.20;;;4.40;;
16199;SDS011;8207;52.494;4.654;2023-02-28T04:57:05;7.87;;;4.53;;
16199;SDS011;8207;52.494;4.654;2023-02-28T04:59:32;7.43;;;4.50;;
16199;SDS011;8207;52.494;4.654;2023-02-28T05:01:59;5.97;;;3.97;;
16199;SDS011;8207;52.494;4.654;2023-02-28T05:04:33;4.70;;;3.50;;
16199;SDS011;8207;52.494;4.654;2023-02-28T05:07:00;5.83;;;3.97;;
16199;SDS011;8207;52.494;4.654;2023-02-28T05:09:28;5.40;;;3.53;;
16199;SDS011;8207;52.494;4.654;2023-02-28T05:11:55;9.20;;;3.97;;
16199;SDS011;8207;52.494;4.654;2023-02-28T05:14:23;8.97;;;4.43;;
16199;SDS011;8207;52.494;4.654;2023-02-28T05:16:50;7.40;;;3.73;;
16199;SDS011;8207;52.494;4.654;2023-02-28T05:19:17;7.97;;;3.50;;
16199;SDS011;8207;52.494;4.654;2023-02-28T05:21:49;8.33;;;3.70;;
16199;SDS011;8207;52.494;4.654;2023-02-28T05:24:18;7.30;;;3.13;;
16199;SDS011;8207;52.494;4.654;2023-02-28T05:26:48;6.47;;;3.40;;
16199;SDS011;8207;52.494;4.654;2023-02-28T05:29:16;5.77;;;3.33;;
16199;SDS011;8207;52.494;4.654;2023-02-28T05:31:43;5.53;;;3.23;;
16199;SDS011;8207;52.494;4.654;2023-02-28T05:34:10;8.90;;;4.17;;
16199;SDS011;8207;52.494;4.654;2023-02-28T05:36:37;7.23;;;3.23;;
16199;SDS011;8207;52.494;4.654;2023-02-28T05:39:06;5.27;;;3.83;;
16199;SDS011;8207;52.494;4.654;2023-02-28T05:41:37;12.40;;;5.87;;
16199;SDS011;8207;52.494;4.654;2023-02-28T05:44:05;10.10;;;4.80;;
16199;SDS011;8207;52.494;4.654;2023-02-28T05:46:32;9.43;;;4.80;;
16199;SDS011;8207;52.494;4.654;2023-02-28T05:48:59;8.10;;;4.00;;
16199;SDS011;8207;52.494;4.654;2023-02-28T05:51:26;9.20;;;5.07;;
16199;SDS011;8207;52.494;4.654;2023-02-28T05:53:53;6.97;;;4.10;;
16199;SDS011;8207;52.494;4.654;2023-02-28T05:56:21;4.97;;;4.07;;
16199;SDS011;8207;52.494;4.654;2023-02-28T05:58:48;8.60;;;4.70;;
16199;SDS011;8207;52.494;4.654;2023-02-28T06:01:22;8.47;;;4.67;;
16199;SDS011;8207;52.494;4.654;2023-02-28T06:03:52;10.67;;;5.37;;
16199;SDS011;8207;52.494;4.654;2023-02-28T06:06:19;9.47;;;4.73;;
16199;SDS011;8207;52.494;4.654;2023-02-28T06:08:46;13.00;;;6.27;;
16199;SDS011;8207;52.494;4.654;2023-02-28T06:11:13;9.40;;;5.07;;
16199;SDS011;8207;52.494;4.654;2023-02-28T06:13:41;11.43;;;5.57;;
16199;SDS011;8207;52.494;4.654;2023-02-28T06:16:08;5.87;;;4.53;;
16199;SDS011;8207;52.494;4.654;2023-02-28T06:18:37;8.77;;;4.60;;
16199;SDS011;8207;52.494;4.654;2023-02-28T06:21:04;12.13;;;5.73;;
16199;SDS011;8207;52.494;4.654;2023-02-28T06:23:31;8.53;;;5.50;;
16199;SDS011;8207;52.494;4.654;2023-02-28T06:25:58;7.80;;;5.13;;
16199;SDS011;8207;52.494;4.654;2023-02-28T06:28:25;6.70;;;6.00;;
16199;SDS011;8207;52.494;4.654;2023-02-28T06:30:54;9.33;;;6.57;;
16199;SDS011;8207;52.494;4.654;2023-02-28T06:33:21;11.97;;;7.07;;
16199;SDS011;8207;52.494;4.654;2023-02-28T06:35:49;11.10;;;6.73;;
16199;SDS011;8207;52.494;4.654;2023-02-28T06:38:17;12.97;;;8.30;;
16199;SDS011;8207;52.494;4.654;2023-02-28T06:40:44;9.30;;;6.90;;
16199;SDS011;8207;52.494;4.654;2023-02-28T06:43:18;13.93;;;7.70;;
16199;SDS011;8207;52.494;4.654;2023-02-28T06:45:45;9.53;;;6.43;;
16199;SDS011;8207;52.494;4.654;2023-02-28T06:48:14;10.53;;;6.77;;
16199;SDS011;8207;52.494;4.654;2023-02-28T06:50:41;11.77;;;7.27;;
16199;SDS011;8207;52.494;4.654;2023-02-28T06:53:08;11.07;;;7.80;;
16199;SDS011;8207;52.494;4.654;2023-02-28T06:55:37;11.33;;;7.40;;
16199;SDS011;8207;52.494;4.654;2023-02-28T06:58:04;13.40;;;8.33;;
16199;SDS011;8207;52.494;4.654;2023-02-28T07:00:39;10.73;;;7.67;;
16199;SDS011;8207;52.494;4.654;2023-02-28T07:03:07;11.73;;;8.37;;
16199;SDS011;8207;52.494;4.654;2023-02-28T07:05:36;11.60;;;7.73;;
16199;SDS011;8207;52.494;4.654;2023-02-28T07:08:03;12.83;;;8.50;;
16199;SDS011;8207;52.494;4.654;2023-02-28T07:10:31;13.20;;;8.37;;
16199;SDS011;8207;52.494;4.654;2023-02-28T07:12:59;14.17;;;8.20;;
16199;SDS011;8207;52.494;4.654;2023-02-28T07:15:26;13.27;;;8.90;;
16199;SDS011;8207;52.494;4.654;2023-02-28T07:17:53;18.13;;;8.63;;
16199;SDS011;8207;52.494;4.654;2023-02-28T07:20:21;15.07;;;8.67;;
16199;SDS011;8207;52.494;4.654;2023-02-28T07:22:49;13.37;;;9.37;;
16199;SDS011;8207;52.494;4.654;2023-02-28T07:25:21;15.00;;;9.40;;
16199;SDS011;8207;52.494;4.654;2023-02-28T07:27:48;15.20;;;9.40;;
16199;SDS011;8207;52.494;4.654;2023-02-28T07:30:16;18.57;;;11.50;;
16199;SDS011;8207;52.494;4.654;2023-02-28T07:32:43;18.87;;;11.13;;
16199;SDS011;8207;52.494;4.654;2023-02-28T07:35:10;17.40;;;11.40;;
16199;SDS011;8207;52.494;4.654;2023-02-28T07:44:36;19.47;;;12.77;;
16199;SDS011;8207;52.494;4.654;2023-02-28T07:47:05;18.33;;;13.20;;
16199;SDS011;8207;52.494;4.654;2023-02-28T07:49:33;20.77;;;14.07;;
16199;SDS011;8207;52.494;4.654;2023-02-28T07:52:01;21.33;;;15.30;;
16199;SDS011;8207;52.494;4.654;2023-02-28T07:57:53;19.00;;;14.37;;
16199;SDS011;8207;52.494;4.654;2023-02-28T08:00:22;22.60;;;15.73;;
16199;SDS011;8207;52.494;4.654;2023-02-28T08:02:49;17.63;;;14.00;;
16199;SDS011;8207;52.494;4.654;2023-02-28T08:05:17;22.53;;;14.13;;
16199;SDS011;8207;52.494;4.654;2023-02-28T08:07:44;20.87;;;13.63;;
16199;SDS011;8207;52.494;4.654;2023-02-28T08:10:12;18.77;;;12.83;;
16199;SDS011;8207;52.494;4.654;2023-02-28T08:12:39;16.43;;;12.57;;
16199;SDS011;8207;52.494;4.654;2023-02-28T08:15:07;17.40;;;12.03;;
16199;SDS011;8207;52.494;4.654;2023-02-28T08:17:35;15.20;;;12.00;;
16199;SDS011;8207;52.494;4.654;2023-02-28T08:20:03;12.80;;;10.60;;
16199;SDS011;8207;52.494;4.654;2023-02-28T08:22:30;13.27;;;10.50;;
16199;SDS011;8207;52.494;4.654;2023-02-28T08:24:57;14.70;;;9.87;;
16199;SDS011;8207;52.494;4.654;2023-02-28T08:27:24;12.77;;;10.37;;
16199;SDS011;8207;52.494;4.654;2023-02-28T08:29:51;11.20;;;10.00;;
16199;SDS011;8207;52.494;4.654;2023-02-28T08:32:17;11.87;;;10.10;;
16199;SDS011;8207;52.494;4.654;2023-02-28T08:34:46;11.77;;;10.37;;
16199;SDS011;8207;52.494;4.654;2023-02-28T08:37:12;11.93;;;9.87;;
16199;SDS011;8207;52.494;4.654;2023-02-28T08:39:39;11.80;;;10.27;;
16199;SDS011;8207;52.494;4.654;2023-02-28T08:42:06;13.37;;;11.63;;
16199;SDS011;8207;52.494;4.654;2023-02-28T08:44:33;12.37;;;11.07;;
16199;SDS011;8207;52.494;4.654;2023-02-28T08:47:00;11.37;;;10.17;;
16199;SDS011;8207;52.494;4.654;2023-02-28T08:49:27;12.80;;;11.40;;
16199;SDS011;8207;52.494;4.654;2023-02-28T08:51:56;14.20;;;12.13;;
16199;SDS011;8207;52.494;4.654;2023-02-28T08:54:23;14.37;;;12.17;;
16199;SDS011;8207;52.494;4.654;2023-02-28T08:56:49;14.87;;;11.97;;
16199;SDS011;8207;52.494;4.654;2023-02-28T08:59:16;13.90;;;12.40;;
16199;SDS011;8207;52.494;4.654;2023-02-28T09:01:43;12.60;;;11.27;;
16199;SDS011;8207;52.494;4.654;2023-02-28T09:04:10;13.73;;;12.03;;
16199;SDS011;8207;52.494;4.654;2023-02-28T09:06:37;12.40;;;11.10;;
16199;SDS011;8207;52.494;4.654;2023-02-28T09:09:05;13.07;;;11.03;;
16199;SDS011;8207;52.494;4.654;2023-02-28T09:11:34;12.53;;;11.23;;
16199;SDS011;8207;52.494;4.654;2023-02-28T09:14:01;11.97;;;10.70;;
16199;SDS011;8207;52.494;4.654;2023-02-28T09:16:29;11.63;;;10.43;;
16199;SDS011;8207;52.494;4.654;2023-02-28T09:18:57;12.73;;;10.00;;
16199;SDS011;8207;52.494;4.654;2023-02-28T09:21:24;11.03;;;9.87;;
16199;SDS011;8207;52.494;4.654;2023-02-28T09:23:51;11.87;;;9.03;;
16199;SDS011;8207;52.494;4.654;2023-02-28T09:26:21;13.13;;;10.03;;
16199;SDS011;8207;52.494;4.654;2023-02-28T09:28:49;12.10;;;10.07;;
16199;SDS011;8207;52.494;4.654;2023-02-28T09:31:17;10.47;;;9.33;;
16199;SDS011;8207;52.494;4.654;2023-02-28T09:33:46;10.77;;;9.40;;
16199;SDS011;8207;52.494;4.654;2023-02-28T09:36:14;11.20;;;8.83;;
16199;SDS011;8207;52.494;4.654;2023-02-28T09:38:40;13.23;;;10.53;;
16199;SDS011;8207;52.494;4.654;2023-02-28T09:41:10;12.40;;;9.67;;
16199;SDS011;8207;52.494;4.654;2023-02-28T09:43:43;12.20;;;9.50;;
16199;SDS011;8207;52.494;4.654;2023-02-28T09:46:27;11.47;;;9.77;;
16199;SDS011;8207;52.494;4.654;2023-02-28T09:48:57;10.23;;;8.70;;
16199;SDS011;8207;52.494;4.654;2023-02-28T09:51:44;12.03;;;9.63;;
16199;SDS011;8207;52.494;4.654;2023-02-28T09:54:17;12.57;;;8.87;;
16199;SDS011;8207;52.494;4.654;2023-02-28T09:56:45;10.17;;;8.57;;
16199;SDS011;8207;52.494;4.654;2023-02-28T09:59:24;10.77;;;8.70;;
16199;SDS011;8207;52.494;4.654;2023-02-28T10:02:00;13.10;;;10.10;;
16199;SDS011;8207;52.494;4.654;2023-02-28T10:04:36;12.90;;;9.53;;
16199;SDS011;8207;52.494;4.654;2023-02-28T10:07:11;14.77;;;10.67;;
16199;SDS011;8207;52.494;4.654;2023-02-28T10:09:46;11.67;;;9.70;;
16199;SDS011;8207;52.494;4.654;2023-02-28T10:12:18;11.33;;;9.07;;
16199;SDS011;8207;52.494;4.654;2023-02-28T10:14:49;15.30;;;10.30;;
16199;SDS011;8207;52.494;4.654;2023-02-28T10:17:19;14.73;;;8.77;;
16199;SDS011;8207;52.494;4.654;2023-02-28T10:19:51;12.17;;;10.50;;
16199;SDS011;8207;52.494;4.654;2023-02-28T10:22:25;17.47;;;13.37;;
16199;SDS011;8207;52.494;4.654;2023-02-28T10:24:56;15.23;;;11.67;;
16199;SDS011;8207;52.494;4.654;2023-02-28T10:27:29;13.00;;;10.53;;
16199;SDS011;8207;52.494;4.654;2023-02-28T10:29:58;13.23;;;10.50;;
16199;SDS011;8207;52.494;4.654;2023-02-28T10:32:27;10.73;;;9.33;;
16199;SDS011;8207;52.494;4.654;2023-02-28T10:34:57;11.00;;;9.37;;
16199;SDS011;8207;52.494;4.654;2023-02-28T10:37:27;12.70;;;9.90;;
16199;SDS011;8207;52.494;4.654;2023-02-28T10:39:54;9.57;;;8.57;;
16199;SDS011;8207;52.494;4.654;2023-02-28T10:42:22;10.00;;;8.30;;
16199;SDS011;8207;52.494;4.654;2023-02-28T10:47:40;10.23;;;7.87;;
16199;SDS011;8207;52.494;4.654;2023-02-28T10:50:29;9.23;;;8.23;;
16199;SDS011;8207;52.494;4.654;2023-02-28T10:53:22;10.30;;;8.13;;
16199;SDS011;8207;52.494;4.654;2023-02-28T10:55:58;9.20;;;7.43;;
16199;SDS011;8207;52.494;4.654;2023-02-28T10:58:27;8.10;;;7.17;;
16199;SDS011;8207;52.494;4.654;2023-02-28T11:00:57;9.20;;;7.37;;
16199;SDS011;8207;52.494;4.654;2023-02-28T11:03:29;9.37;;;7.47;;
16199;SDS011;8207;52.494;4.654;2023-02-28T11:05:57;8.47;;;6.97;;
16199;SDS011;8207;52.494;4.654;2023-02-28T11:08:30;6.93;;;6.23;;
16199;SDS011;8207;52.494;4.654;2023-02-28T11:10:58;10.23;;;6.90;;
16199;SDS011;8207;52.494;4.654;2023-02-28T11:13:31;7.53;;;6.53;;
16199;SDS011;8207;52.494;4.654;2023-02-28T11:16:02;8.43;;;5.80;;
16199;SDS011;8207;52.494;4.654;2023-02-28T11:18:33;7.67;;;5.97;;
16199;SDS011;8207;52.494;4.654;2023-02-28T11:21:05;7.23;;;6.13;;
16199;SDS011;8207;52.494;4.654;2023-02-28T11:23:33;10.20;;;6.80;;
16199;SDS011;8207;52.494;4.654;2023-02-28T11:26:03;8.10;;;6.60;;
16199;SDS011;8207;52.494;4.654;2023-02-28T11:28:35;9.47;;;6.20;;
16199;SDS011;8207;52.494;4.654;2023-02-28T11:31:13;6.23;;;5.63;;
16199;SDS011;8207;52.494;4.654;2023-02-28T11:33:44;8.77;;;5.23;;
16199;SDS011;8207;52.494;4.654;2023-02-28T11:36:15;7.80;;;5.03;;
16199;SDS011;8207;52.494;4.654;2023-02-28T11:38:45;10.63;;;5.10;;
16199;SDS011;8207;52.494;4.654;2023-02-28T11:41:33;7.23;;;4.67;;
16199;SDS011;8207;52.494;4.654;2023-02-28T11:44:23;5.33;;;3.83;;
16199;SDS011;8207;52.494;4.654;2023-02-28T11:47:04;4.87;;;3.67;;
16199;SDS011;8207;52.494;4.654;2023-02-28T11:49:41;4.03;;;3.20;;
16199;SDS011;8207;52.494;4.654;2023-02-28T11:52:19;3.93;;;3.27;;
16199;SDS011;8207;52.494;4.654;2023-02-28T11:54:59;4.23;;;3.10;;
16199;SDS011;8207;52.494;4.654;2023-02-28T11:57:52;4.93;;;3.23;;
16199;SDS011;8207;52.494;4.654;2023-02-28T12:00:45;3.37;;;2.47;;
16199;SDS011;8207;52.494;4.654;2023-02-28T12:03:30;3.60;;;2.93;;
16199;SDS011;8207;52.494;4.654;2023-02-28T12:06:09;5.70;;;2.57;;
16199;SDS011;8207;52.494;4.654;2023-02-28T12:08:47;4.53;;;2.63;;
16199;SDS011;8207;52.494;4.654;2023-02-28T12:11:24;4.27;;;2.50;;
16199;SDS011;8207;52.494;4.654;2023-02-28T12:14:05;3.70;;;3.20;;
16199;SDS011;8207;52.494;4.654;2023-02-28T12:16:47;3.47;;;2.90;;
16199;SDS011;8207;52.494;4.654;2023-02-28T12:19:22;5.23;;;2.80;;
16199;SDS011;8207;52.494;4.654;2023-02-28T12:21:59;3.90;;;3.20;;
16199;SDS011;8207;52.494;4.654;2023-02-28T12:24:45;4.93;;;3.90;;
16199;SDS011;8207;52.494;4.654;2023-02-28T12:27:30;5.67;;;2.90;;
16199;SDS011;8207;52.494;4.654;2023-02-28T12:30:02;3.40;;;2.80;;
16199;SDS011;8207;52.494;4.654;2023-02-28T12:32:40;3.70;;;2.80;;
16199;SDS011;8207;52.494;4.654;2023-02-28T12:35:13;3.43;;;2.47;;
16199;SDS011;8207;52.494;4.654;2023-02-28T12:37:44;3.80;;;2.83;;
16199;SDS011;8207;52.494;4.654;2023-02-28T12:40:17;5.47;;;3.07;;
16199;SDS011;8207;52.494;4.654;2023-02-28T12:42:48;4.10;;;2.60;;
16199;SDS011;8207;52.494;4.654;2023-02-28T12:45:18;4.33;;;2.70;;
16199;SDS011;8207;52.494;4.654;2023-02-28T12:47:50;3.93;;;2.80;;
16199;SDS011;8207;52.494;4.654;2023-02-28T12:50:24;3.80;;;2.67;;
16199;SDS011;8207;52.494;4.654;2023-02-28T12:52:53;4.10;;;2.93;;
16199;SDS011;8207;52.494;4.654;2023-02-28T12:55:27;2.30;;;2.10;;
16199;SDS011;8207;52.494;4.654;2023-02-28T12:58:05;4.07;;;2.63;;
16199;SDS011;8207;52.494;4.654;2023-02-28T13:00:39;4.63;;;2.30;;
16199;SDS011;8207;52.494;4.654;2023-02-28T13:06:32;3.37;;;2.37;;
16199;SDS011;8207;52.494;4.654;2023-02-28T13:09:10;2.77;;;1.83;;
16199;SDS011;8207;52.494;4.654;2023-02-28T13:11:40;2.83;;;1.83;;
16199;SDS011;8207;52.494;4.654;2023-02-28T13:14:16;3.63;;;2.00;;
16199;SDS011;8207;52.494;4.654;2023-02-28T13:16:53;3.07;;;1.77;;
16199;SDS011;8207;52.494;4.654;2023-02-28T13:19:23;1.93;;;1.50;;
16199;SDS011;8207;52.494;4.654;2023-02-28T13:21:54;1.83;;;1.50;;
16199;SDS011;8207;52.494;4.654;2023-02-28T13:24:38;2.23;;;1.90;;
16199;SDS011;8207;52.494;4.654;2023-02-28T13:27:11;2.53;;;1.90;;
16199;SDS011;8207;52.494;4.654;2023-02-28T13:29:56;1.83;;;1.67;;
16199;SDS011;8207;52.494;4.654;2023-02-28T13:38:21;3.07;;;1.60;;
16199;SDS011;8207;52.494;4.654;2023-02-28T13:43:59;3.40;;;1.60;;
16199;SDS011;8207;52.494;4.654;2023-02-28T13:46:27;3.47;;;2.53;;
16199;SDS011;8207;52.494;4.654;2023-02-28T13:48:54;3.60;;;1.97;;
16199;SDS011;8207;52.494;4.654;2023-02-28T13:51:28;3.30;;;2.33;;
16199;SDS011;8207;52.494;4.654;2023-02-28T13:54:09;2.63;;;2.00;;
16199;SDS011;8207;52.494;4.654;2023-02-28T13:56:53;2.83;;;1.70;;
16199;SDS011;8207;52.494;4.654;2023-02-28T13:59:32;1.73;;;1.60;;
16199;SDS011;8207;52.494;4.654;2023-02-28T14:05:00;3.50;;;1.90;;
16199;SDS011;8207;52.494;4.654;2023-02-28T14:07:32;5.07;;;1.60;;
16199;SDS011;8207;52.494;4.654;2023-02-28T14:10:19;2.60;;;2.00;;
16199;SDS011;8207;52.494;4.654;2023-02-28T14:12:57;3.70;;;2.07;;
16199;SDS011;8207;52.494;4.654;2023-02-28T14:15:38;2.93;;;2.17;;
16199;SDS011;8207;52.494;4.654;2023-02-28T14:18:23;3.33;;;2.53;;
16199;SDS011;8207;52.494;4.654;2023-02-28T14:20:55;2.13;;;1.70;;
16199;SDS011;8207;52.494;4.654;2023-02-28T14:23:34;3.27;;;2.40;;
16199;SDS011;8207;52.494;4.654;2023-02-28T14:26:23;2.73;;;2.40;;
16199;SDS011;8207;52.494;4.654;2023-02-28T14:29:08;3.07;;;2.23;;
16199;SDS011;8207;52.494;4.654;2023-02-28T14:31:50;2.23;;;2.03;;
16199;SDS011;8207;52.494;4.654;2023-02-28T14:34:26;5.53;;;2.30;;
16199;SDS011;8207;52.494;4.654;2023-02-28T14:37:05;2.60;;;2.27;;
16199;SDS011;8207;52.494;4.654;2023-02-28T14:39:32;4.10;;;2.20;;
16199;SDS011;8207;52.494;4.654;2023-02-28T14:42:03;3.07;;;2.10;;
16199;SDS011;8207;52.494;4.654;2023-02-28T14:44:53;2.37;;;2.10;;
16199;SDS011;8207;52.494;4.654;2023-02-28T14:47:21;3.67;;;2.77;;
16199;SDS011;8207;52.494;4.654;2023-02-28T14:49:51;2.83;;;2.57;;
16199;SDS011;8207;52.494;4.654;2023-02-28T14:52:20;2.47;;;2.27;;
16199;SDS011;8207;52.494;4.654;2023-02-28T14:54:51;3.07;;;2.20;;
16199;SDS011;8207;52.494;4.654;2023-02-28T14:57:22;3.47;;;2.47;;
16199;SDS011;8207;52.494;4.654;2023-02-28T14:59:57;3.23;;;2.20;;
16199;SDS011;8207;52.494;4.654;2023-02-28T15:02:26;3.97;;;2.40;;
16199;SDS011;8207;52.494;4.654;2023-02-28T15:04:57;2.90;;;2.30;;
16199;SDS011;8207;52.494;4.654;2023-02-28T15:07:26;3.33;;;2.10;;
16199;SDS011;8207;52.494;4.654;2023-02-28T15:10:13;4.10;;;2.30;;
16199;SDS011;8207;52.494;4.654;2023-02-28T15:12:48;3.40;;;2.13;;
16199;SDS011;8207;52.494;4.654;2023-02-28T15:15:19;2.53;;;2.33;;
16199;SDS011;8207;52.494;4.654;2023-02-28T15:17:50;2.50;;;2.30;;
16199;SDS011;8207;52.494;4.654;2023-02-28T15:20:20;3.33;;;2.27;;
16199;SDS011;8207;52.494;4.654;2023-02-28T15:22:49;3.87;;;2.47;;
16199;SDS011;8207;52.494;4.654;2023-02-28T15:25:19;4.70;;;2.20;;
16199;SDS011;8207;52.494;4.654;2023-02-28T15:27:50;3.73;;;1.90;;
16199;SDS011;8207;52.494;4.654;2023-02-28T15:30:20;2.00;;;1.80;;
16199;SDS011;8207;52.494;4.654;2023-02-28T15:33:04;4.23;;;2.43;;
16199;SDS011;8207;52.494;4.654;2023-02-28T15:35:33;3.97;;;2.20;;
16199;SDS011;8207;52.494;4.654;2023-02-28T15:38:01;2.27;;;1.93;;
16199;SDS011;8207;52.494;4.654;2023-02-28T15:40:36;3.00;;;2.10;;
16199;SDS011;8207;52.494;4.654;2023-02-28T15:43:06;2.37;;;1.80;;
16199;SDS011;8207;52.494;4.654;2023-02-28T15:45:41;3.00;;;2.00;;
16199;SDS011;8207;52.494;4.654;2023-02-28T15:48:14;3.73;;;2.50;;
16199;SDS011;8207;52.494;4.654;2023-02-28T15:50:43;2.47;;;1.90;;
16199;SDS011;8207;52.494;4.654;2023-02-28T15:53:13;2.63;;;2.20;;
16199;SDS011;8207;52.494;4.654;2023-02-28T15:55:41;2.40;;;2.20;;
16199;SDS011;8207;52.494;4.654;2023-02-28T15:58:10;2.73;;;2.13;;
16199;SDS011;8207;52.494;4.654;2023-02-28T16:00:39;2.63;;;2.30;;
16199;SDS011;8207;52.494;4.654;2023-02-28T16:03:22;3.57;;;2.00;;
16199;SDS011;8207;52.494;4.654;2023-02-28T16:08:49;2.67;;;2.30;;